Surface observations / UK / EGMC

Quebec | Canada | USA | France | UK | Europe | Elsewhere

Display: Info & Location for EGMC | Help decoding METAR

EGMC SOUTHEND-ON-SEA -- UK
Raw surface observations for station EGMC
EGMC 060850Z 21012KT 9999 SCT023 19/10 Q1020=
EGMC 060820Z 23011KT 9999 FEW022 18/11 Q1020=
EGMC 060750Z 22010KT 9999 FEW017 17/10 Q1020=
EGMC 060720Z 23008KT CAVOK 17/12 Q1020=
EGMC 060650Z 21009KT CAVOK 16/12 Q1020=
EGMC 060620Z 21007KT CAVOK 15/11 Q1020=
EGMC 060550Z 22006KT CAVOK 14/11 Q1020=
EGMC 060520Z 21005KT CAVOK 15/11 Q1020=
EGMC 060450Z 22006KT CAVOK 14/11 Q1020=
EGMC 060420Z 22005KT CAVOK 12/10 Q1020=
EGMC 060320Z 23007KT CAVOK 13/10 Q1019=
EGMC 060150Z 23007KT CAVOK 13/11 Q1019=
EGMC 060020Z 22007KT CAVOK 15/11 Q1019=
EGMC 052250Z 22007KT CAVOK 15/11 Q1018=
EGMC 052220Z 22008KT CAVOK 15/12 Q1018=
EGMC 052150Z 22008KT CAVOK 16/12 Q1018=
EGMC 052120Z 22009KT CAVOK 16/11 Q1017=
EGMC 052050Z 23008KT 9999 FEW040 17/10 Q1017=
EGMC 052020Z 26006KT 9999 FEW040 18/10 Q1017=
EGMC 051950Z 27004KT 9999 FEW042 19/10 Q1016=
EGMC 051920Z 27004KT 9999 FEW047 19/11 Q1016=
EGMC 051850Z 28007KT 9999 FEW047 19/10 Q1016=
EGMC 051820Z 29008KT 9999 FEW048 20/11 Q1015=
EGMC 051750Z 23016KT 9999 FEW044 20/10 Q1015=
EGMC 051720Z 22017KT 9999 FEW044 21/10 Q1015=
EGMC 051650Z 22015KT 9999 FEW041 22/11 Q1015=
EGMC 051620Z 21012KT 180V240 9999 FEW039 22/11 Q1015=
EGMC 051550Z 20011KT 170V230 9999 FEW035 21/12 Q1015=
EGMC 051520Z 20010KT 170V240 9999 FEW030 21/11 Q1015=
EGMC 051450Z 22009KT 9999 FEW030 21/12 Q1016=
EGMC 051420Z 25008KT 220V280 9999 FEW017 20/13 Q1016=
EGMC 051350Z 22008KT 170V250 9999 FEW017 19/12 Q1016=
EGMC 051320Z 24008KT 9999 FEW014 SCT049 18/14 Q1016=
EGMC 051250Z 24009KT 9999 FEW012 17/13 Q1016=
EGMC 051220Z 19006KT 9999 FEW010 16/13 Q1016=
EGMC 051150Z 20004KT 170V230 9999 FEW011 16/13 Q1016=
EGMC 051120Z 24004KT 9000 -RA FEW010 15/12 Q1016=
EGMC 051050Z VRB01KT 9000 -RA FEW008 SCT028 15/13 Q1016=
EGMC 051020Z 22004KT 190V260 9000 RA FEW009 15/12 Q1017=
EGMC 050950Z VRB03KT 9000 RA SCT010 16/13 Q1017=
EGMC 050920Z VRB03KT 9000 RA SCT010 BKN024 16/13 Q1017=